Time,TemperatureF,DewpointF,PressureIn,WindDirection,WindDirectionDegrees,WindSpeedMPH,WindSpeedGustMPH,Humidity,HourlyPrecipIn,Conditions,Clouds,dailyrainin,SolarRadiationWatts/m^2,SoftwareType,DateUTC
2014-01-23 00:09:00,38.9,32.0,30.21,SW,215,0.0,0.0,76,0.00,,,0.00,14,weatherlink.com 1.10,2014-01-23 06:09:00,
2014-01-23 00:24:00,38.6,32.0,30.20,SW,215,0.0,0.0,77,0.00,,,0.00,14,weatherlink.com 1.10,2014-01-23 06:24:00,
2014-01-23 00:39:00,38.7,32.0,30.21,SW,215,0.0,0.0,77,0.00,,,0.00,12,weatherlink.com 1.10,2014-01-23 06:39:00,
2014-01-23 00:55:00,38.7,32.0,30.22,SW,215,0.0,1.0,78,0.00,,,0.00,14,weatherlink.com 1.10,2014-01-23 06:55:00,
2014-01-23 01:09:00,38.9,33.0,30.22,SW,215,0.0,0.0,79,0.00,,,0.00,14,weatherlink.com 1.10,2014-01-23 07:09:00,
2014-01-23 01:24:00,39.0,33.0,30.23,SW,215,0.0,0.0,79,0.00,,,0.00,14,weatherlink.com 1.10,2014-01-23 07:24:00,
2014-01-23 01:39:00,39.0,33.0,30.23,SW,215,0.0,0.0,79,0.00,,,0.00,14,weatherlink.com 1.10,2014-01-23 07:39:00,
2014-01-23 01:54:00,38.9,33.0,30.23,SW,215,0.0,0.0,80,0.00,,,0.00,12,weatherlink.com 1.10,2014-01-23 07:54:00,
2014-01-23 02:09:00,38.9,33.0,30.23,SW,215,0.0,0.0,80,0.00,,,0.00,14,weatherlink.com 1.10,2014-01-23 08:09:00,
2014-01-23 02:24:00,38.8,33.0,30.24,SSW,212,1.0,2.0,80,0.00,,,0.00,14,weatherlink.com 1.10,2014-01-23 08:24:00,
2014-01-23 02:39:00,38.4,33.0,30.25,SSW,212,0.0,2.0,82,0.00,,,0.00,12,weatherlink.com 1.10,2014-01-23 08:39:00,
2014-01-23 02:54:00,37.9,33.0,30.25,SSW,212,0.0,0.0,82,0.00,,,0.00,14,weatherlink.com 1.10,2014-01-23 08:54:00,
2014-01-23 03:09:00,37.5,33.0,30.25,SSW,212,0.0,0.0,83,0.00,,,0.00,14,weatherlink.com 1.10,2014-01-23 09:09:00,
2014-01-23 03:24:00,37.0,33.0,30.25,SSW,212,0.0,0.0,84,0.00,,,0.00,14,weatherlink.com 1.10,2014-01-23 09:24:00,
2014-01-23 03:39:00,36.6,32.0,30.25,SSW,212,0.0,1.0,84,0.00,,,0.00,14,weatherlink.com 1.10,2014-01-23 09:39:00,
2014-01-23 03:54:00,35.9,32.0,30.26,SSW,212,2.0,2.0,85,0.00,,,0.00,14,weatherlink.com 1.10,2014-01-23 09:54:00,
2014-01-23 04:10:00,35.4,32.0,30.26,SSW,212,0.0,2.0,86,0.00,,,0.00,12,weatherlink.com 1.10,2014-01-23 10:10:00,
2014-01-23 04:25:00,35.2,31.0,30.27,SSW,212,0.0,1.0,86,0.00,,,0.00,14,weatherlink.com 1.10,2014-01-23 10:25:00,
2014-01-23 04:40:00,35.0,31.0,30.27,SSW,212,1.0,2.0,85,0.00,,,0.00,14,weatherlink.com 1.10,2014-01-23 10:40:00,
2014-01-23 04:55:00,34.9,31.0,30.28,NE,46,2.0,4.0,84,0.00,,,0.00,14,weatherlink.com 1.10,2014-01-23 10:55:00,
2014-01-23 05:10:00,35.1,30.0,30.28,NE,46,2.0,3.0,83,0.00,,,0.00,14,weatherlink.com 1.10,2014-01-23 11:10:00,
2014-01-23 05:25:00,35.3,30.0,30.29,NE,46,2.0,7.0,81,0.00,,,0.00,12,weatherlink.com 1.10,2014-01-23 11:25:00,
2014-01-23 05:40:00,35.6,29.0,30.30,NE,46,1.0,4.0,78,0.00,,,0.00,12,weatherlink.com 1.10,2014-01-23 11:40:00,
2014-01-23 05:55:00,36.1,28.0,30.30,NE,34,4.0,5.0,73,0.00,,,0.00,12,weatherlink.com 1.10,2014-01-23 11:55:00,
2014-01-23 06:10:00,36.5,27.0,30.31,NE,50,3.0,6.0,69,0.00,,,0.00,14,weatherlink.com 1.10,2014-01-23 12:10:00,
2014-01-23 06:25:00,36.5,26.0,30.31,NE,44,6.0,6.0,67,0.00,,,0.00,14,weatherlink.com 1.10,2014-01-23 12:25:00,
2014-01-23 06:40:00,36.8,25.0,30.32,NE,38,3.0,8.0,63,0.00,,,0.00,14,weatherlink.com 1.10,2014-01-23 12:40:00,
2014-01-23 06:55:00,37.1,25.0,30.32,NNE,20,5.0,10.0,61,0.00,,,0.00,19,weatherlink.com 1.10,2014-01-23 12:55:00,
2014-01-23 07:10:00,36.8,24.0,30.33,NE,41,3.0,8.0,61,0.00,,,0.00,16,weatherlink.com 1.10,2014-01-23 13:10:00,
2014-01-23 07:25:00,36.4,25.0,30.33,NE,36,6.0,8.0,64,0.00,,,0.00,25,weatherlink.com 1.10,2014-01-23 13:25:00,
2014-01-23 07:40:00,36.8,26.0,30.34,NE,53,7.0,9.0,65,0.00,,,0.00,139,weatherlink.com 1.10,2014-01-23 13:40:00,
2014-01-23 07:55:00,38.4,27.0,30.35,NNE,19,8.0,10.0,63,0.00,,,0.00,221,weatherlink.com 1.10,2014-01-23 13:55:00,
2014-01-23 08:10:00,39.4,26.0,30.35,ENE,68,5.0,15.0,58,0.00,,,0.00,195,weatherlink.com 1.10,2014-01-23 14:10:00,
2014-01-23 08:25:00,39.8,26.0,30.37,NNE,31,3.0,14.0,57,0.00,,,0.00,153,weatherlink.com 1.10,2014-01-23 14:25:00,
2014-01-23 08:40:00,40.1,26.0,30.37,NE,42,7.0,10.0,57,0.00,,,0.00,95,weatherlink.com 1.10,2014-01-23 14:40:00,
2014-01-23 08:56:00,41.8,25.0,30.38,NE,51,6.0,9.0,52,0.00,,,0.00,381,weatherlink.com 1.10,2014-01-23 14:56:00,
2014-01-23 09:11:00,42.1,23.0,30.39,East,80,10.0,12.0,47,0.00,,,0.00,429,weatherlink.com 1.10,2014-01-23 15:11:00,
2014-01-23 09:26:00,42.9,23.0,30.40,NNE,26,7.0,11.0,46,0.00,,,0.00,441,weatherlink.com 1.10,2014-01-23 15:26:00,
2014-01-23 09:41:00,43.8,23.0,30.40,NNE,20,4.0,11.0,44,0.00,,,0.00,517,weatherlink.com 1.10,2014-01-23 15:41:00,
2014-01-23 09:56:00,44.1,22.0,30.41,ENE,67,9.0,11.0,41,0.00,,,0.00,578,weatherlink.com 1.10,2014-01-23 15:56:00,
2014-01-23 10:11:00,44.6,21.0,30.41,NNE,24,4.0,12.0,39,0.00,,,0.00,629,weatherlink.com 1.10,2014-01-23 16:11:00,
2014-01-23 10:26:00,46.2,21.0,30.41,ENE,71,5.0,10.0,37,0.00,,,0.00,633,weatherlink.com 1.10,2014-01-23 16:26:00,
2014-01-23 10:41:00,46.9,22.0,30.41,NE,42,6.0,11.0,37,0.00,,,0.00,652,weatherlink.com 1.10,2014-01-23 16:41:00,
2014-01-23 10:56:00,46.8,21.0,30.41,NE,50,7.0,12.0,36,0.00,,,0.00,650,weatherlink.com 1.10,2014-01-23 16:56:00,
2014-01-23 11:11:00,47.7,22.0,30.40,North,351,5.0,10.0,36,0.00,,,0.00,512,weatherlink.com 1.10,2014-01-23 17:11:00,
2014-01-23 11:26:00,48.7,21.0,30.39,North,355,4.0,12.0,34,0.00,,,0.00,329,weatherlink.com 1.10,2014-01-23 17:26:00,
2014-01-23 11:41:00,48.5,21.0,30.38,ENE,57,8.0,12.0,34,0.00,,,0.00,125,weatherlink.com 1.10,2014-01-23 17:41:00,
2014-01-23 11:56:00,49.2,22.0,30.38,NE,39,5.0,10.0,34,0.00,,,0.00,292,weatherlink.com 1.10,2014-01-23 17:56:00,
2014-01-23 12:11:00,49.5,22.0,30.37,NNE,13,8.0,9.0,34,0.00,,,0.00,482,weatherlink.com 1.10,2014-01-23 18:11:00,
2014-01-23 12:26:00,50.1,23.0,30.37,North,11,4.0,9.0,34,0.00,,,0.00,116,weatherlink.com 1.10,2014-01-23 18:26:00,
2014-01-23 12:41:00,50.1,23.0,30.36,East,82,3.0,9.0,34,0.00,,,0.00,132,weatherlink.com 1.10,2014-01-23 18:41:00,
2014-01-23 12:56:00,51.0,23.0,30.35,ENE,78,5.0,10.0,33,0.00,,,0.00,97,weatherlink.com 1.10,2014-01-23 18:56:00,
2014-01-23 13:11:00,51.4,24.0,30.34,ENE,75,3.0,17.0,34,0.00,,,0.00,83,weatherlink.com 1.10,2014-01-23 19:11:00,
2014-01-23 13:26:00,51.3,24.0,30.35,North,5,3.0,8.0,34,0.00,,,0.00,72,weatherlink.com 1.10,2014-01-23 19:26:00,
2014-01-23 13:41:00,51.9,23.0,30.35,NNE,26,4.0,11.0,33,0.00,,,0.00,62,weatherlink.com 1.10,2014-01-23 19:41:00,
2014-01-23 13:56:00,52.4,24.0,30.35,ENE,63,10.0,10.0,33,0.00,,,0.00,62,weatherlink.com 1.10,2014-01-23 19:56:00,
2014-01-23 14:11:00,52.4,23.0,30.35,ENE,57,8.0,11.0,32,0.00,,,0.00,63,weatherlink.com 1.10,2014-01-23 20:11:00,
2014-01-23 14:27:00,52.7,24.0,30.35,ENE,76,8.0,13.0,33,0.00,,,0.00,49,weatherlink.com 1.10,2014-01-23 20:27:00,
2014-01-23 14:42:00,52.6,23.0,30.35,NNW,331,7.0,12.0,32,0.00,,,0.00,46,weatherlink.com 1.10,2014-01-23 20:42:00,
2014-01-23 14:58:00,52.8,24.0,30.36,North,355,10.0,11.0,33,0.00,,,0.00,46,weatherlink.com 1.10,2014-01-23 20:58:00,
2014-01-23 15:12:00,52.3,25.0,30.36,North,360,6.0,10.0,34,0.00,,,0.00,44,weatherlink.com 1.10,2014-01-23 21:12:00,
2014-01-23 15:27:00,52.6,25.0,30.36,NE,36,6.0,12.0,34,0.00,,,0.00,42,weatherlink.com 1.10,2014-01-23 21:27:00,
2014-01-23 15:42:00,52.1,24.0,30.37,East,86,3.0,10.0,34,0.00,,,0.00,63,weatherlink.com 1.10,2014-01-23 21:42:00,
2014-01-23 15:57:00,51.6,25.0,30.37,ENE,69,7.0,7.0,35,0.00,,,0.00,53,weatherlink.com 1.10,2014-01-23 21:57:00,
2014-01-23 16:12:00,51.5,25.0,30.37,North,5,6.0,12.0,35,0.00,,,0.00,104,weatherlink.com 1.10,2014-01-23 22:12:00,
2014-01-23 16:27:00,51.6,25.0,30.38,ENE,76,1.0,10.0,35,0.00,,,0.00,70,weatherlink.com 1.10,2014-01-23 22:27:00,
2014-01-23 16:42:00,51.2,24.0,30.38,NE,49,2.0,10.0,35,0.00,,,0.00,35,weatherlink.com 1.10,2014-01-23 22:42:00,
2014-01-23 16:57:00,50.5,24.0,30.38,North,5,4.0,10.0,36,0.00,,,0.00,18,weatherlink.com 1.10,2014-01-23 22:57:00,
2014-01-23 17:12:00,49.8,24.0,30.39,NNE,15,6.0,10.0,37,0.00,,,0.00,7,weatherlink.com 1.10,2014-01-23 23:12:00,
2014-01-23 17:27:00,49.2,24.0,30.40,NNE,20,3.0,10.0,38,0.00,,,0.00,0,weatherlink.com 1.10,2014-01-23 23:27:00,
2014-01-23 17:42:00,48.7,25.0,30.41,NNE,30,2.0,7.0,39,0.00,,,0.00,16,weatherlink.com 1.10,2014-01-23 23:42:00,
2014-01-23 17:57:00,48.3,25.0,30.42,NNE,27,5.0,7.0,40,0.00,,,0.00,16,weatherlink.com 1.10,2014-01-23 23:57:00,
2014-01-23 18:12:00,47.9,24.0,30.43,North,360,3.0,8.0,40,0.00,,,0.00,16,weatherlink.com 1.10,2014-01-24 00:12:00,
2014-01-23 18:27:00,47.0,25.0,30.44,NNE,28,6.0,13.0,42,0.00,,,0.00,16,weatherlink.com 1.10,2014-01-24 00:27:00,
2014-01-23 18:42:00,46.3,25.0,30.43,North,5,5.0,10.0,43,0.00,,,0.00,16,weatherlink.com 1.10,2014-01-24 00:42:00,
2014-01-23 18:57:00,45.9,24.0,30.44,NNE,19,7.0,13.0,43,0.00,,,0.00,16,weatherlink.com 1.10,2014-01-24 00:57:00,
2014-01-23 19:12:00,45.5,25.0,30.45,NNW,341,6.0,11.0,44,0.00,,,0.00,16,weatherlink.com 1.10,2014-01-24 01:12:00,
2014-01-23 19:27:00,45.1,24.0,30.45,NE,42,6.0,11.0,44,0.00,,,0.00,16,weatherlink.com 1.10,2014-01-24 01:27:00,
2014-01-23 19:42:00,45.0,24.0,30.45,NNW,348,6.0,18.0,43,0.00,,,0.00,16,weatherlink.com 1.10,2014-01-24 01:42:00,
2014-01-23 19:57:00,44.8,23.0,30.45,NNE,24,4.0,14.0,42,0.00,,,0.00,16,weatherlink.com 1.10,2014-01-24 01:57:00,
2014-01-23 20:12:00,44.6,22.0,30.46,North,5,9.0,13.0,41,0.00,,,0.00,16,weatherlink.com 1.10,2014-01-24 02:12:00,
2014-01-23 20:27:00,44.3,22.0,30.46,NNE,26,8.0,15.0,41,0.00,,,0.00,16,weatherlink.com 1.10,2014-01-24 02:27:00,
2014-01-23 20:42:00,44.0,21.0,30.47,North,350,3.0,15.0,40,0.00,,,0.00,16,weatherlink.com 1.10,2014-01-24 02:42:00,
2014-01-23 20:57:00,43.8,20.0,30.48,NNW,346,6.0,15.0,39,0.00,,,0.00,16,weatherlink.com 1.10,2014-01-24 02:57:00,
2014-01-23 21:12:00,43.6,21.0,30.48,NE,49,5.0,20.0,41,0.00,,,0.00,16,weatherlink.com 1.10,2014-01-24 03:12:00,
2014-01-23 21:27:00,43.2,21.0,30.50,North,355,8.0,16.0,41,0.00,,,0.00,16,weatherlink.com 1.10,2014-01-24 03:27:00,
2014-01-23 21:42:00,42.5,20.0,30.50,NE,55,5.0,18.0,41,0.00,,,0.00,16,weatherlink.com 1.10,2014-01-24 03:42:00,
2014-01-23 21:57:00,41.8,20.0,30.51,North,10,3.0,15.0,42,0.00,,,0.00,16,weatherlink.com 1.10,2014-01-24 03:57:00,
2014-01-23 22:12:00,41.4,20.0,30.52,NNE,17,14.0,16.0,43,0.00,,,0.00,16,weatherlink.com 1.10,2014-01-24 04:12:00,
2014-01-23 22:27:00,40.6,21.0,30.52,NNW,347,10.0,18.0,45,0.00,,,0.00,16,weatherlink.com 1.10,2014-01-24 04:27:00,
2014-01-23 22:42:00,39.8,20.0,30.54,North,5,8.0,18.0,46,0.00,,,0.00,16,weatherlink.com 1.10,2014-01-24 04:42:00,
2014-01-23 22:57:00,39.0,22.0,30.54,NNW,347,7.0,18.0,51,0.00,,,0.00,16,weatherlink.com 1.10,2014-01-24 04:57:00,
2014-01-23 23:12:00,38.5,21.0,30.54,North,11,8.0,17.0,50,0.00,,,0.00,16,weatherlink.com 1.10,2014-01-24 05:12:00,
2014-01-23 23:27:00,38.3,20.0,30.55,NNE,15,7.0,17.0,47,0.00,,,0.00,16,weatherlink.com 1.10,2014-01-24 05:27:00,
2014-01-23 23:42:00,38.0,19.0,30.54,NNW,348,7.0,19.0,46,0.00,,,0.00,18,weatherlink.com 1.10,2014-01-24 05:42:00,
2014-01-23 23:58:00,38.0,19.0,30.55,NNW,340,6.0,17.0,47,0.00,,,0.00,18,weatherlink.com 1.10,2014-01-24 05:58:00,